LEMH/MAH METAR and TAF weather

Enter ICAO airport designator
Station Type Date Time Source
LEMH METAR 2020/08/06 00:00 UTC NOAA

LEMH 060000Z 01001KT CAVOK 22/18 Q1015


Station Type Date Time Source
LEMH Decoded METAR 2020/08/06 00:00 UTC NOAA

Menorca / Mahon, Spain (LEMH) 39-52N 004-14E 82M
Aug 05, 2020 - 08:00 PM EDT / 2020.08.06 0000 UTC
Wind: from the N (010 degrees) at 1 MPH (1 KT):0
Visibility: greater than 7 mile(s):0
Temperature: 71 F (22 C)
Dew Point: 64 F (18 C)
Relative Humidity: 78%
Pressure (altimeter): 29.97 in. Hg (1015 hPa)
ob: LEMH 060000Z 01001KT CAVOK 22/18 Q1015
cycle: 0

Station Type Date Time Source
LEMH TAF 2020/08/05 21:30 UTC NOAA

TAF LEMH 052000Z 0521/0621 VRB04KT 9999 FEW040 TX30/0612Z TN20/0605Z
BECMG 0609/0611 22012KT

Example: see airport list